Barnerville, New York
Current Conditions -  °F | °C
As of 12:15 PM on Saturday 20 Dec 2014 (Local Time) from KNY0 Reporting Station
Overcast Overcast  
Wind Chill: 16°   Ceiling: 2300
Heat Index: 23°   Visibility: 10mi
Dew Point: 16°   Wind: 6mph
Humidity: 74%   Direction: 220°SW
Pressure: 30.26"   Gusts: NA
Location:  42.7023°N, 74.392°W
Report Text: KNY0 201715Z AUTO 22005KT 10SM OVC023 M05/M09 A3026 RMK AO2 T10481088
Loading
Personal Weather Stations






























Interactive Weather Map New forecast layout! Learn more

10-Day Weather Forecast

Advertisements
Track Severe Weather on mobile